createdAt,value
2023-03-13T00:00:50.667Z,11.16
2023-03-13T00:03:17.286Z,11.15
2023-03-13T00:05:43.809Z,11.20
2023-03-13T00:08:10.308Z,11.21
2023-03-13T00:10:38.192Z,11.31
2023-03-13T00:13:05.302Z,11.31
2023-03-13T00:15:32.030Z,11.40
2023-03-13T00:17:58.584Z,11.41
2023-03-13T00:20:25.397Z,11.36
2023-03-13T00:22:51.969Z,11.40
2023-03-13T00:25:18.545Z,11.39
2023-03-13T00:27:44.920Z,11.39
2023-03-13T00:30:11.892Z,11.38
2023-03-13T00:32:42.828Z,11.43
2023-03-13T00:35:09.433Z,11.50
2023-03-13T00:37:35.898Z,11.50
2023-03-13T00:40:02.397Z,11.50
2023-03-13T00:42:28.836Z,11.55
2023-03-13T00:44:55.292Z,11.55
2023-03-13T00:47:21.648Z,11.57
2023-03-13T00:49:47.972Z,11.61
2023-03-13T00:52:14.419Z,11.58
2023-03-13T00:54:41.495Z,11.55
2023-03-13T00:57:07.876Z,11.51
2023-03-13T00:59:34.460Z,11.45
2023-03-13T01:02:00.997Z,11.45
2023-03-13T01:04:27.409Z,11.42
2023-03-13T01:06:53.790Z,11.34
2023-03-13T01:09:20.206Z,11.29
2023-03-13T01:11:46.902Z,11.28
2023-03-13T01:14:18.878Z,11.26
2023-03-13T01:16:45.428Z,11.28
2023-03-13T01:19:14.668Z,11.26
2023-03-13T01:21:42.553Z,11.21
2023-03-13T01:24:09.626Z,11.15
2023-03-13T01:26:36.240Z,11.17
2023-03-13T01:29:03.287Z,11.03
2023-03-13T01:31:33.042Z,11.02
2023-03-13T01:34:01.658Z,10.98
2023-03-13T01:36:28.406Z,11.00
2023-03-13T01:38:57.540Z,11.00
2023-03-13T01:41:25.223Z,10.98
2023-03-13T01:43:52.094Z,10.94
2023-03-13T01:46:36.781Z,10.95
2023-03-13T01:49:07.822Z,10.96
2023-03-13T01:51:53.627Z,10.91
2023-03-13T01:54:29.968Z,10.87
2023-03-13T01:57:21.109Z,10.85
2023-03-13T01:59:53.890Z,10.86
2023-03-13T02:02:22.349Z,10.90
2023-03-13T02:04:54.642Z,10.93
2023-03-13T02:07:28.074Z,10.96
2023-03-13T02:09:56.620Z,11.01
2023-03-13T02:12:34.729Z,11.04
2023-03-13T02:15:08.023Z,11.10
2023-03-13T02:17:36.540Z,11.17
2023-03-13T02:20:04.576Z,11.25
2023-03-13T02:22:57.972Z,11.34
2023-03-13T02:25:24.368Z,11.39
2023-03-13T02:27:55.063Z,11.44
2023-03-13T02:30:21.964Z,11.50
2023-03-13T02:32:48.740Z,11.51
2023-03-13T02:35:19.514Z,11.57
2023-03-13T02:37:51.060Z,11.54
2023-03-13T02:40:22.705Z,11.56
2023-03-13T02:42:50.757Z,11.62
2023-03-13T02:45:18.176Z,11.58
2023-03-13T02:47:44.579Z,11.54
2023-03-13T02:50:12.637Z,11.50
2023-03-13T02:52:46.870Z,11.44
2023-03-13T02:55:18.209Z,11.43
2023-03-13T02:57:45.106Z,11.42
2023-03-13T03:00:12.756Z,11.41
2023-03-13T03:02:39.708Z,11.42
2023-03-13T03:05:06.541Z,11.42
2023-03-13T03:07:32.884Z,11.42
2023-03-13T03:09:59.365Z,11.34
2023-03-13T03:12:25.749Z,11.35
2023-03-13T03:14:52.208Z,11.25
2023-03-13T03:17:18.761Z,11.24
2023-03-13T03:19:45.259Z,11.19
2023-03-13T03:22:11.650Z,11.19
2023-03-13T03:24:38.200Z,11.21
2023-03-13T03:27:04.875Z,11.15
2023-03-13T03:29:31.436Z,11.16
2023-03-13T03:31:57.884Z,11.19
2023-03-13T03:34:24.455Z,11.17
2023-03-13T03:36:50.916Z,11.16
2023-03-13T03:39:17.401Z,11.15
2023-03-13T03:41:43.744Z,11.13
2023-03-13T03:44:10.127Z,11.10
2023-03-13T03:46:36.528Z,11.14
2023-03-13T03:49:03.111Z,11.14
2023-03-13T03:51:29.539Z,11.17
2023-03-13T03:53:55.904Z,11.18
2023-03-13T03:56:22.389Z,11.15
2023-03-13T03:58:48.769Z,11.19
2023-03-13T04:01:15.255Z,11.19
2023-03-13T04:03:41.712Z,11.18
2023-03-13T04:06:09.295Z,11.16
2023-03-13T04:08:36.336Z,11.17
2023-03-13T04:11:02.960Z,11.19
2023-03-13T04:13:29.391Z,11.22
2023-03-13T04:15:55.777Z,11.27
2023-03-13T04:18:22.182Z,11.31
2023-03-13T04:20:48.612Z,11.39
2023-03-13T04:23:15.060Z,11.34
2023-03-13T04:25:41.500Z,11.38
2023-03-13T04:28:08.848Z,11.40
2023-03-13T04:30:35.337Z,11.46
2023-03-13T04:33:01.844Z,11.45
2023-03-13T04:35:28.397Z,11.45
2023-03-13T04:37:54.837Z,11.49
2023-03-13T04:40:21.250Z,11.56
2023-03-13T04:42:47.626Z,11.62
2023-03-13T04:45:14.086Z,11.61
2023-03-13T04:47:40.699Z,11.64
2023-03-13T04:50:07.619Z,11.73
2023-03-13T04:52:34.064Z,11.85
2023-03-13T04:55:00.662Z,12.02
2023-03-13T04:57:27.143Z,12.14
2023-03-13T04:59:53.480Z,12.25
2023-03-13T05:02:19.888Z,12.34
2023-03-13T05:04:46.332Z,12.42
2023-03-13T05:07:12.726Z,12.48
2023-03-13T05:09:39.100Z,12.53
2023-03-13T05:12:05.866Z,12.60
2023-03-13T05:14:32.209Z,12.65
2023-03-13T05:16:58.514Z,12.67
2023-03-13T05:19:24.925Z,12.74
2023-03-13T05:21:51.496Z,12.80
2023-03-13T05:24:18.006Z,12.79
2023-03-13T05:26:44.413Z,12.87
2023-03-13T05:29:10.875Z,12.88
2023-03-13T05:31:37.317Z,12.90
2023-03-13T05:34:03.760Z,12.95
2023-03-13T05:36:30.277Z,12.94
2023-03-13T05:38:57.005Z,12.95
2023-03-13T05:41:23.426Z,12.95
2023-03-13T05:43:49.876Z,12.98
2023-03-13T05:46:16.286Z,13.00
2023-03-13T05:48:42.760Z,13.06
2023-03-13T05:51:09.182Z,13.06
2023-03-13T05:53:35.550Z,13.06
2023-03-13T05:56:01.964Z,13.06
2023-03-13T05:58:28.460Z,13.09
2023-03-13T06:00:54.850Z,13.12
2023-03-13T06:03:23.006Z,13.16
2023-03-13T06:05:49.625Z,13.26
2023-03-13T06:08:15.987Z,13.33
2023-03-13T06:10:42.438Z,13.38
2023-03-13T06:13:19.528Z,13.41
2023-03-13T06:15:57.474Z,13.53
2023-03-13T06:18:24.865Z,13.57
2023-03-13T06:20:57.452Z,13.60
2023-03-13T06:23:23.892Z,13.63
2023-03-13T06:25:51.328Z,13.65
2023-03-13T06:28:17.717Z,13.68
2023-03-13T06:30:44.453Z,13.70
2023-03-13T06:33:11.468Z,13.75
2023-03-13T06:35:55.342Z,13.83
2023-03-13T06:38:22.524Z,13.87
2023-03-13T06:40:48.900Z,13.88
2023-03-13T06:43:15.271Z,13.88
2023-03-13T06:45:41.659Z,13.91
2023-03-13T06:48:08.198Z,13.93
2023-03-13T06:50:38.584Z,13.98
2023-03-13T06:53:05.474Z,14.01
2023-03-13T06:55:32.373Z,13.99
2023-03-13T06:57:59.179Z,14.01
2023-03-13T07:00:25.540Z,14.03
2023-03-13T07:02:52.008Z,13.99
2023-03-13T07:05:18.383Z,14.01
2023-03-13T07:07:44.733Z,13.98
2023-03-13T07:10:11.738Z,14.00
2023-03-13T07:12:38.157Z,14.05
2023-03-13T07:15:05.938Z,14.06
2023-03-13T07:17:32.531Z,14.07
2023-03-13T07:19:59.065Z,14.05
2023-03-13T07:22:25.444Z,14.07
2023-03-13T07:24:52.001Z,14.09
2023-03-13T07:27:21.112Z,14.07
2023-03-13T07:29:47.616Z,14.11
2023-03-13T07:32:13.995Z,14.14
2023-03-13T07:34:40.414Z,14.15
2023-03-13T07:37:06.759Z,14.16
2023-03-13T07:39:33.107Z,14.19
2023-03-13T07:41:59.416Z,14.22
2023-03-13T07:44:25.758Z,14.23
2023-03-13T07:46:52.133Z,14.22
2023-03-13T07:49:18.484Z,14.26
2023-03-13T07:51:47.593Z,14.34
2023-03-13T07:54:14.268Z,14.37
2023-03-13T07:56:40.732Z,14.44
2023-03-13T07:59:07.160Z,14.46
2023-03-13T08:01:33.841Z,14.52
2023-03-13T08:04:03.517Z,14.52
2023-03-13T08:06:33.953Z,14.53
2023-03-13T08:09:01.391Z,14.54
2023-03-13T08:11:28.858Z,14.57
2023-03-13T08:13:56.708Z,14.57
2023-03-13T08:16:25.612Z,14.64
2023-03-13T08:18:55.148Z,14.67
2023-03-13T08:21:32.731Z,14.70
2023-03-13T08:24:01.470Z,14.70
2023-03-13T08:26:29.791Z,14.70
2023-03-13T08:29:01.691Z,14.75
2023-03-13T08:31:34.882Z,14.75
2023-03-13T08:34:01.346Z,14.76
2023-03-13T08:36:31.454Z,14.76
2023-03-13T08:39:05.017Z,14.76
2023-03-13T08:41:35.984Z,14.79
2023-03-13T08:44:03.683Z,14.76
2023-03-13T08:46:31.418Z,14.72
2023-03-13T08:48:58.480Z,14.71
2023-03-13T08:51:27.696Z,14.67
2023-03-13T08:53:56.052Z,14.62
2023-03-13T08:56:25.261Z,14.62
2023-03-13T08:58:59.980Z,14.60
2023-03-13T09:01:30.472Z,14.57
2023-03-13T09:03:57.977Z,14.58
2023-03-13T09:06:24.524Z,14.65
2023-03-13T09:08:50.964Z,14.67
2023-03-13T09:11:19.877Z,14.72
2023-03-13T09:13:48.499Z,14.71
2023-03-13T09:16:18.344Z,14.72
2023-03-13T09:18:45.491Z,14.76
2023-03-13T09:21:17.579Z,14.76
2023-03-13T09:23:44.597Z,14.76
2023-03-13T09:26:15.246Z,14.77
2023-03-13T09:28:42.253Z,14.79
2023-03-13T09:31:26.874Z,14.79
2023-03-13T09:33:54.066Z,14.77
2023-03-13T09:36:22.914Z,14.82
2023-03-13T09:38:54.810Z,14.83
2023-03-13T09:41:44.970Z,14.86
2023-03-13T09:44:26.582Z,14.88
2023-03-13T09:46:52.968Z,14.92
2023-03-13T09:49:51.470Z,14.87
2023-03-13T09:52:26.296Z,14.91
2023-03-13T09:55:03.097Z,14.95
2023-03-13T09:57:40.140Z,14.92
2023-03-13T10:00:14.810Z,14.91
2023-03-13T10:02:47.786Z,14.87
2023-03-13T10:05:14.815Z,14.98
2023-03-13T10:07:41.259Z,15.03
2023-03-13T10:10:14.966Z,14.99
2023-03-13T10:12:47.575Z,14.99
2023-03-13T10:15:43.917Z,15.03
2023-03-13T10:18:15.645Z,15.01
2023-03-13T10:20:43.011Z,15.03
2023-03-13T10:23:33.115Z,15.03
2023-03-13T10:26:02.506Z,15.12
2023-03-13T10:28:29.160Z,15.24
2023-03-13T10:31:08.208Z,15.31
2023-03-13T10:33:36.953Z,15.38
2023-03-13T10:36:12.243Z,15.44
2023-03-13T10:38:56.984Z,15.51
2023-03-13T10:41:38.588Z,15.61
2023-03-13T10:44:08.579Z,15.60
2023-03-13T10:46:40.172Z,15.65
2023-03-13T10:49:14.985Z,15.69
2023-03-13T10:51:48.331Z,15.69
2023-03-13T10:54:21.929Z,15.70
2023-03-13T10:56:49.687Z,15.74
2023-03-13T10:59:25.309Z,15.83
2023-03-13T11:01:53.418Z,15.86
2023-03-13T11:04:34.915Z,15.90
2023-03-13T11:07:06.710Z,15.98
2023-03-13T11:09:33.438Z,16.04
2023-03-13T11:12:20.413Z,16.12
2023-03-13T11:14:47.112Z,16.10
2023-03-13T11:17:32.680Z,16.09
2023-03-13T11:20:17.690Z,16.16
2023-03-13T11:22:56.266Z,16.23
2023-03-13T11:25:39.116Z,16.38
2023-03-13T11:28:25.205Z,16.40
2023-03-13T11:31:00.792Z,16.43
2023-03-13T11:33:57.496Z,16.50
2023-03-13T11:36:36.384Z,16.57
2023-03-13T11:39:07.931Z,16.63
2023-03-13T11:42:10.741Z,16.64
2023-03-13T11:45:06.686Z,16.65
2023-03-13T11:47:50.584Z,16.69
2023-03-13T11:50:26.546Z,16.71
2023-03-13T11:53:23.814Z,16.77
2023-03-13T11:56:22.760Z,16.87
2023-03-13T11:59:01.118Z,17.29
2023-03-13T12:01:32.375Z,17.45
2023-03-13T12:04:07.197Z,17.45
2023-03-13T12:06:52.472Z,17.34
2023-03-13T12:09:26.086Z,17.30
2023-03-13T12:11:59.554Z,17.29
2023-03-13T12:14:31.404Z,17.22
2023-03-13T12:17:10.755Z,17.20
2023-03-13T12:19:49.253Z,17.19
2023-03-13T12:22:28.737Z,17.27
2023-03-13T12:25:21.301Z,17.49
2023-03-13T12:27:55.135Z,17.66
2023-03-13T12:30:33.715Z,17.66
2023-03-13T12:33:29.795Z,17.71
2023-03-13T12:36:22.636Z,17.73
2023-03-13T12:39:05.341Z,17.76
2023-03-13T12:41:41.943Z,17.68
2023-03-13T12:44:15.204Z,17.73
2023-03-13T12:46:46.401Z,17.77
2023-03-13T12:49:40.056Z,17.79
2023-03-13T12:52:24.599Z,17.83
2023-03-13T12:54:54.080Z,17.74
2023-03-13T12:58:02.312Z,17.89
2023-03-13T13:00:31.391Z,18.07
2023-03-13T13:03:28.887Z,18.32
2023-03-13T13:06:15.612Z,18.40
2023-03-13T13:09:07.696Z,18.93
2023-03-13T13:11:34.198Z,18.99
2023-03-13T13:14:16.958Z,18.79
2023-03-13T13:16:46.573Z,18.70
2023-03-13T13:19:25.027Z,18.83
2023-03-13T13:22:28.995Z,18.45
2023-03-13T13:25:00.603Z,18.16
2023-03-13T13:27:32.904Z,18.07
2023-03-13T13:30:01.560Z,17.98
2023-03-13T13:32:32.673Z,17.76
2023-03-13T13:35:06.449Z,17.61
2023-03-13T13:37:33.751Z,17.56
2023-03-13T13:40:31.315Z,17.62
2023-03-13T13:42:57.645Z,17.56
2023-03-13T13:45:36.716Z,17.51
2023-03-13T13:48:43.100Z,17.49
2023-03-13T13:51:14.013Z,17.40
2023-03-13T13:53:48.461Z,17.31
2023-03-13T13:56:42.696Z,17.17
2023-03-13T13:59:21.302Z,17.08
2023-03-13T14:01:50.862Z,17.12
2023-03-13T14:04:30.038Z,17.20
2023-03-13T14:07:04.223Z,17.41
2023-03-13T14:09:43.660Z,17.42
2023-03-13T14:12:28.312Z,17.61
2023-03-13T14:15:19.917Z,17.75
2023-03-13T14:18:00.369Z,17.87
2023-03-13T14:20:38.383Z,18.14
2023-03-13T14:23:10.429Z,18.66
2023-03-13T14:25:45.380Z,18.50
2023-03-13T14:28:23.839Z,18.33
2023-03-13T14:30:52.827Z,18.13
2023-03-13T14:33:19.711Z,18.13
2023-03-13T14:35:47.617Z,18.03
2023-03-13T14:38:19.904Z,18.01
2023-03-13T14:40:46.735Z,17.94
2023-03-13T14:43:41.715Z,17.79
2023-03-13T14:46:25.045Z,17.71
2023-03-13T14:48:54.574Z,17.61
2023-03-13T14:51:25.394Z,17.52
2023-03-13T14:54:00.272Z,17.41
2023-03-13T14:56:35.500Z,17.40
2023-03-13T14:59:17.669Z,17.40
2023-03-13T15:01:45.262Z,17.43
2023-03-13T15:04:12.087Z,17.41
2023-03-13T15:06:38.533Z,17.40
2023-03-13T15:09:18.379Z,17.35
2023-03-13T15:11:55.193Z,17.36
2023-03-13T15:14:43.672Z,17.32
2023-03-13T15:17:17.465Z,17.32
2023-03-13T15:19:48.317Z,17.39
2023-03-13T15:22:16.252Z,17.32
2023-03-13T15:24:46.778Z,17.32
2023-03-13T15:27:22.229Z,17.25
2023-03-13T15:29:48.939Z,17.21
2023-03-13T15:32:30.843Z,17.21
2023-03-13T15:35:01.916Z,17.17
2023-03-13T15:37:29.394Z,17.18
2023-03-13T15:39:57.060Z,17.19
2023-03-13T15:42:24.479Z,17.23
2023-03-13T15:44:50.833Z,17.25
2023-03-13T15:47:21.877Z,17.24
2023-03-13T15:49:48.555Z,17.19
2023-03-13T15:52:19.357Z,17.18
2023-03-13T15:54:46.673Z,17.23
2023-03-13T15:57:19.822Z,17.28
2023-03-13T15:59:46.175Z,17.27
2023-03-13T16:02:19.152Z,17.35
2023-03-13T16:04:45.866Z,17.45
2023-03-13T16:07:13.624Z,17.51
2023-03-13T16:09:41.415Z,17.52
2023-03-13T16:12:08.470Z,17.49
2023-03-13T16:14:35.384Z,17.42
2023-03-13T16:17:03.057Z,17.39
2023-03-13T16:19:30.583Z,17.30
2023-03-13T16:21:56.893Z,17.28
2023-03-13T16:24:23.261Z,17.28
2023-03-13T16:26:50.134Z,17.27
2023-03-13T16:29:16.681Z,17.26
2023-03-13T16:31:53.950Z,17.25
2023-03-13T16:34:20.284Z,17.21
2023-03-13T16:36:46.729Z,17.21
2023-03-13T16:39:15.477Z,17.18
2023-03-13T16:41:42.100Z,17.05
2023-03-13T16:44:08.639Z,16.95
2023-03-13T16:46:37.658Z,16.88
2023-03-13T16:49:05.272Z,16.84
2023-03-13T16:51:31.902Z,16.77
2023-03-13T16:54:03.576Z,16.79
2023-03-13T16:56:31.131Z,16.74
2023-03-13T16:58:58.361Z,16.69
2023-03-13T17:01:25.988Z,16.64
2023-03-13T17:03:52.844Z,16.66
2023-03-13T17:06:23.002Z,16.67
2023-03-13T17:08:49.786Z,16.62
2023-03-13T17:11:19.274Z,16.55
2023-03-13T17:13:47.872Z,16.51
2023-03-13T17:16:24.625Z,16.52
2023-03-13T17:18:53.409Z,16.48
2023-03-13T17:21:24.625Z,16.47
2023-03-13T17:23:51.811Z,16.41
2023-03-13T17:26:22.933Z,16.41
2023-03-13T17:28:52.191Z,16.41
2023-03-13T17:31:19.774Z,16.36
2023-03-13T17:33:46.757Z,16.29
2023-03-13T17:36:24.715Z,16.35
2023-03-13T17:38:58.206Z,16.35
2023-03-13T17:41:27.514Z,16.34
2023-03-13T17:43:54.090Z,16.29
2023-03-13T17:46:39.354Z,16.24
2023-03-13T17:49:07.628Z,16.25
2023-03-13T17:51:35.870Z,16.19
2023-03-13T17:54:02.989Z,16.17
2023-03-13T17:56:37.339Z,16.18
2023-03-13T17:59:04.218Z,16.05
2023-03-13T18:01:32.844Z,15.99
2023-03-13T18:03:59.611Z,15.91
2023-03-13T18:06:31.582Z,15.82
2023-03-13T18:09:02.980Z,15.79
2023-03-13T18:11:29.614Z,15.81
2023-03-13T18:13:56.028Z,15.78
2023-03-13T18:16:38.125Z,15.75
2023-03-13T18:19:07.276Z,15.71
2023-03-13T18:21:34.328Z,15.68
2023-03-13T18:24:01.017Z,15.66
2023-03-13T18:26:31.384Z,15.59
2023-03-13T18:29:00.273Z,15.51
2023-03-13T18:31:31.897Z,15.55
2023-03-13T18:33:59.437Z,15.55
2023-03-13T18:36:27.693Z,15.55
2023-03-13T18:38:54.834Z,15.53
2023-03-13T18:41:21.556Z,15.50
2023-03-13T18:43:48.195Z,15.47
2023-03-13T18:46:35.682Z,15.49
2023-03-13T18:49:02.091Z,15.54
2023-03-13T18:51:28.846Z,15.54
2023-03-13T18:53:56.039Z,15.52
2023-03-13T18:56:22.388Z,15.51
2023-03-13T18:58:50.835Z,15.46
2023-03-13T19:01:22.572Z,15.43
2023-03-13T19:03:49.662Z,15.43
2023-03-13T19:06:25.045Z,15.45
2023-03-13T19:08:53.957Z,15.41
2023-03-13T19:11:23.719Z,15.40
2023-03-13T19:13:50.166Z,15.40
2023-03-13T19:16:20.320Z,15.33
2023-03-13T19:18:48.050Z,15.29
2023-03-13T19:21:25.540Z,15.25
2023-03-13T19:23:52.988Z,15.32
2023-03-13T19:26:24.480Z,15.30
2023-03-13T19:28:51.049Z,15.25
2023-03-13T19:31:18.682Z,15.22
2023-03-13T19:33:46.368Z,15.17
2023-03-13T19:36:17.809Z,15.18
2023-03-13T19:38:45.211Z,15.05
2023-03-13T19:41:13.044Z,14.95
2023-03-13T19:43:39.932Z,14.87
2023-03-13T19:46:20.802Z,14.97
2023-03-13T19:48:47.669Z,14.97
2023-03-13T19:51:14.860Z,14.97
2023-03-13T19:53:41.507Z,14.81
2023-03-13T19:56:28.656Z,14.74
2023-03-13T19:59:04.102Z,14.71
2023-03-13T20:01:31.689Z,14.70
2023-03-13T20:03:58.523Z,14.65
2023-03-13T20:06:30.476Z,14.54
2023-03-13T20:09:02.382Z,14.44
2023-03-13T20:11:29.914Z,14.47
2023-03-13T20:13:56.796Z,14.36
2023-03-13T20:16:25.675Z,14.31
2023-03-13T20:18:55.249Z,14.32
2023-03-13T20:21:22.416Z,14.26
2023-03-13T20:23:50.621Z,14.21
2023-03-13T20:26:18.798Z,14.21
2023-03-13T20:28:47.405Z,14.19
2023-03-13T20:31:15.264Z,14.23
2023-03-13T20:33:42.095Z,14.24
2023-03-13T20:36:11.264Z,14.15
2023-03-13T20:38:39.052Z,14.07
2023-03-13T20:41:06.406Z,14.04
2023-03-13T20:43:34.024Z,14.05
2023-03-13T20:46:00.538Z,13.99
2023-03-13T20:48:27.224Z,13.95
2023-03-13T20:50:56.117Z,13.89
2023-03-13T20:53:24.863Z,13.86
2023-03-13T20:55:52.620Z,13.78
2023-03-13T20:58:22.677Z,13.77
2023-03-13T21:00:49.439Z,13.69
2023-03-13T21:03:17.577Z,13.73
2023-03-13T21:05:44.560Z,13.76
2023-03-13T21:08:11.521Z,13.72
2023-03-13T21:10:39.357Z,13.72
2023-03-13T21:13:06.035Z,13.73
2023-03-13T21:15:32.755Z,13.73
2023-03-13T21:17:59.846Z,13.69
2023-03-13T21:20:27.537Z,13.60
2023-03-13T21:22:54.131Z,13.54
2023-03-13T21:25:21.139Z,13.51
2023-03-13T21:27:47.585Z,13.50
2023-03-13T21:30:18.018Z,13.44
2023-03-13T21:32:45.262Z,13.45
2023-03-13T21:35:13.186Z,13.46
2023-03-13T21:37:40.768Z,13.40
2023-03-13T21:40:08.887Z,13.35
2023-03-13T21:42:36.130Z,13.32
2023-03-13T21:45:04.642Z,13.26
2023-03-13T21:47:31.648Z,13.20
2023-03-13T21:50:00.550Z,13.10
2023-03-13T21:52:27.940Z,13.04
2023-03-13T21:54:54.432Z,13.08
2023-03-13T21:57:20.791Z,13.06
2023-03-13T21:59:47.236Z,13.06
2023-03-13T22:02:14.084Z,13.04
2023-03-13T22:04:40.608Z,13.04
2023-03-13T22:07:07.031Z,13.05
2023-03-13T22:09:33.690Z,13.06
2023-03-13T22:12:00.096Z,13.06
2023-03-13T22:14:27.917Z,13.05
2023-03-13T22:16:54.552Z,13.12
2023-03-13T22:19:20.925Z,13.10
2023-03-13T22:21:47.414Z,13.13
2023-03-13T22:24:13.848Z,13.15
2023-03-13T22:26:40.475Z,13.12
2023-03-13T22:29:06.898Z,13.11
2023-03-13T22:31:33.348Z,13.04
2023-03-13T22:33:59.700Z,13.03
2023-03-13T22:36:26.125Z,12.97
2023-03-13T22:38:52.531Z,12.89
2023-03-13T22:41:19.386Z,12.92
2023-03-13T22:43:45.826Z,12.86
2023-03-13T22:46:12.948Z,12.79
2023-03-13T22:48:40.109Z,12.76
2023-03-13T22:51:08.820Z,12.73
2023-03-13T22:53:37.506Z,12.77
2023-03-13T22:56:04.306Z,12.75
2023-03-13T22:58:30.829Z,12.70
2023-03-13T23:00:57.239Z,12.69
2023-03-13T23:03:23.685Z,12.66
2023-03-13T23:05:50.152Z,12.56
2023-03-13T23:08:17.052Z,12.55
2023-03-13T23:10:45.352Z,12.48
2023-03-13T23:13:12.747Z,12.37
2023-03-13T23:15:55.388Z,12.43
2023-03-13T23:18:26.683Z,12.40
2023-03-13T23:20:53.975Z,12.34
2023-03-13T23:23:20.721Z,12.38
2023-03-13T23:25:47.211Z,12.39
2023-03-13T23:28:13.654Z,12.36
2023-03-13T23:30:40.086Z,12.38
2023-03-13T23:33:06.484Z,12.42
2023-03-13T23:35:36.768Z,12.45
2023-03-13T23:38:03.490Z,12.44
2023-03-13T23:40:30.234Z,12.48
2023-03-13T23:42:56.667Z,12.44
2023-03-13T23:45:23.057Z,12.45
2023-03-13T23:47:52.795Z,12.47
2023-03-13T23:50:19.906Z,12.53
2023-03-13T23:52:46.446Z,12.51
2023-03-13T23:55:14.938Z,12.47
2023-03-13T23:57:41.388Z,12.48
